sensor_id;sensor_type;location;lat;lon;timestamp;P1;durP1;ratioP1;P2;durP2;ratioP2
55112;SDS011;41006;50.920;3.456;2022-09-02T00:00:10;5.82;;;2.75;;
55112;SDS011;41006;50.920;3.456;2022-09-02T00:00:45;4.47;;;2.40;;
55112;SDS011;41006;50.920;3.456;2022-09-02T00:01:19;7.53;;;2.83;;
55112;SDS011;41006;50.920;3.456;2022-09-02T00:01:53;7.72;;;3.67;;
55112;SDS011;41006;50.920;3.456;2022-09-02T00:02:24;3.78;;;2.20;;
55112;SDS011;41006;50.920;3.456;2022-09-02T00:02:59;11.98;;;2.80;;
55112;SDS011;41006;50.920;3.456;2022-09-02T00:03:35;4.20;;;2.72;;
55112;SDS011;41006;50.920;3.456;2022-09-02T00:04:09;6.68;;;2.33;;
55112;SDS011;41006;50.920;3.456;2022-09-02T00:04:42;3.80;;;2.80;;
55112;SDS011;41006;50.920;3.456;2022-09-02T00:05:15;4.13;;;2.65;;
55112;SDS011;41006;50.920;3.456;2022-09-02T00:05:50;5.40;;;2.90;;
55112;SDS011;41006;50.920;3.456;2022-09-02T00:06:20;4.88;;;2.40;;
55112;SDS011;41006;50.920;3.456;2022-09-02T00:06:54;9.90;;;3.33;;
55112;SDS011;41006;50.920;3.456;2022-09-02T00:07:25;6.95;;;2.78;;
55112;SDS011;41006;50.920;3.456;2022-09-02T00:07:58;6.22;;;2.70;;
55112;SDS011;41006;50.920;3.456;2022-09-02T00:08:28;9.65;;;3.25;;
55112;SDS011;41006;50.920;3.456;2022-09-02T00:09:01;7.28;;;3.17;;
55112;SDS011;41006;50.920;3.456;2022-09-02T00:09:36;7.20;;;2.72;;
55112;SDS011;41006;50.920;3.456;2022-09-02T00:10:09;8.40;;;3.05;;
55112;SDS011;41006;50.920;3.456;2022-09-02T00:10:41;4.43;;;2.50;;
55112;SDS011;41006;50.920;3.456;2022-09-02T00:11:14;4.78;;;2.45;;
55112;SDS011;41006;50.920;3.456;2022-09-02T00:11:47;13.38;;;2.90;;
55112;SDS011;41006;50.920;3.456;2022-09-02T00:12:19;3.97;;;2.33;;
55112;SDS011;41006;50.920;3.456;2022-09-02T00:12:50;8.40;;;3.47;;
55112;SDS011;41006;50.920;3.456;2022-09-02T00:13:22;7.97;;;2.83;;
55112;SDS011;41006;50.920;3.456;2022-09-02T00:13:53;8.70;;;3.08;;
55112;SDS011;41006;50.920;3.456;2022-09-02T00:14:27;7.78;;;3.25;;
55112;SDS011;41006;50.920;3.456;2022-09-02T00:15:00;7.07;;;2.85;;
55112;SDS011;41006;50.920;3.456;2022-09-02T00:15:33;9.13;;;3.70;;
55112;SDS011;41006;50.920;3.456;2022-09-02T00:16:04;8.27;;;2.78;;
55112;SDS011;41006;50.920;3.456;2022-09-02T00:16:39;6.05;;;3.40;;
55112;SDS011;41006;50.920;3.456;2022-09-02T00:17:14;5.70;;;3.22;;
55112;SDS011;41006;50.920;3.456;2022-09-02T00:17:47;6.20;;;2.60;;
55112;SDS011;41006;50.920;3.456;2022-09-02T00:18:17;8.90;;;3.45;;
55112;SDS011;41006;50.920;3.456;2022-09-02T00:18:51;5.85;;;2.80;;
55112;SDS011;41006;50.920;3.456;2022-09-02T00:19:27;7.57;;;3.50;;
55112;SDS011;41006;50.920;3.456;2022-09-02T00:20:00;5.95;;;3.38;;
55112;SDS011;41006;50.920;3.456;2022-09-02T00:20:33;4.93;;;3.80;;
55112;SDS011;41006;50.920;3.456;2022-09-02T00:21:03;5.53;;;3.08;;
55112;SDS011;41006;50.920;3.456;2022-09-02T00:21:36;10.57;;;3.55;;
55112;SDS011;41006;50.920;3.456;2022-09-02T00:22:09;7.78;;;3.03;;
55112;SDS011;41006;50.920;3.456;2022-09-02T00:22:44;5.10;;;3.13;;
55112;SDS011;41006;50.920;3.456;2022-09-02T00:23:20;5.35;;;3.10;;
55112;SDS011;41006;50.920;3.456;2022-09-02T00:23:51;5.85;;;3.28;;
55112;SDS011;41006;50.920;3.456;2022-09-02T00:24:22;8.32;;;3.45;;
55112;SDS011;41006;50.920;3.456;2022-09-02T00:24:53;8.65;;;3.50;;
55112;SDS011;41006;50.920;3.456;2022-09-02T00:25:24;6.22;;;3.40;;
55112;SDS011;41006;50.920;3.456;2022-09-02T00:25:55;5.80;;;2.95;;
55112;SDS011;41006;50.920;3.456;2022-09-02T00:26:25;9.23;;;3.78;;
55112;SDS011;41006;50.920;3.456;2022-09-02T00:27:01;5.18;;;3.17;;
55112;SDS011;41006;50.920;3.456;2022-09-02T00:27:36;5.43;;;3.08;;
55112;SDS011;41006;50.920;3.456;2022-09-02T00:28:07;6.80;;;3.45;;
55112;SDS011;41006;50.920;3.456;2022-09-02T00:28:40;6.95;;;3.22;;
55112;SDS011;41006;50.920;3.456;2022-09-02T00:29:15;6.30;;;3.47;;
55112;SDS011;41006;50.920;3.456;2022-09-02T00:29:49;6.35;;;3.22;;
55112;SDS011;41006;50.920;3.456;2022-09-02T00:30:19;7.07;;;3.28;;
55112;SDS011;41006;50.920;3.456;2022-09-02T00:30:53;9.30;;;3.10;;
55112;SDS011;41006;50.920;3.456;2022-09-02T00:31:23;6.13;;;3.42;;
55112;SDS011;41006;50.920;3.456;2022-09-02T00:32:00;4.55;;;2.60;;
55112;SDS011;41006;50.920;3.456;2022-09-02T00:32:35;3.20;;;2.80;;
55112;SDS011;41006;50.920;3.456;2022-09-02T00:33:06;5.85;;;2.92;;
55112;SDS011;41006;50.920;3.456;2022-09-02T00:33:37;6.07;;;3.00;;
55112;SDS011;41006;50.920;3.456;2022-09-02T00:34:08;6.25;;;3.05;;
55112;SDS011;41006;50.920;3.456;2022-09-02T00:34:41;6.38;;;3.25;;
55112;SDS011;41006;50.920;3.456;2022-09-02T00:35:12;5.72;;;3.20;;
55112;SDS011;41006;50.920;3.456;2022-09-02T00:35:42;6.32;;;3.20;;
55112;SDS011;41006;50.920;3.456;2022-09-02T00:36:15;5.18;;;3.22;;
55112;SDS011;41006;50.920;3.456;2022-09-02T00:36:45;9.80;;;3.70;;
55112;SDS011;41006;50.920;3.456;2022-09-02T00:37:19;8.35;;;3.72;;
55112;SDS011;41006;50.920;3.456;2022-09-02T00:37:54;8.25;;;3.22;;
55112;SDS011;41006;50.920;3.456;2022-09-02T00:38:28;7.88;;;3.58;;
55112;SDS011;41006;50.920;3.456;2022-09-02T00:39:03;10.27;;;3.10;;
55112;SDS011;41006;50.920;3.456;2022-09-02T00:39:37;5.57;;;3.85;;
55112;SDS011;41006;50.920;3.456;2022-09-02T00:40:11;6.55;;;3.28;;
55112;SDS011;41006;50.920;3.456;2022-09-02T00:40:46;6.93;;;3.28;;
55112;SDS011;41006;50.920;3.456;2022-09-02T00:41:20;10.80;;;3.72;;
55112;SDS011;41006;50.920;3.456;2022-09-02T00:41:55;5.20;;;3.22;;
55112;SDS011;41006;50.920;3.456;2022-09-02T00:42:30;8.60;;;3.65;;
55112;SDS011;41006;50.920;3.456;2022-09-02T00:43:03;7.03;;;3.30;;
55112;SDS011;41006;50.920;3.456;2022-09-02T00:44:15;4.20;;;2.92;;
55112;SDS011;41006;50.920;3.456;2022-09-02T00:44:47;10.85;;;3.90;;
55112;SDS011;41006;50.920;3.456;2022-09-02T00:45:19;7.15;;;2.78;;
55112;SDS011;41006;50.920;3.456;2022-09-02T00:45:55;9.20;;;3.92;;
55112;SDS011;41006;50.920;3.456;2022-09-02T00:46:27;5.18;;;2.85;;
55112;SDS011;41006;50.920;3.456;2022-09-02T00:46:59;7.90;;;3.85;;
55112;SDS011;41006;50.920;3.456;2022-09-02T00:47:32;6.85;;;3.17;;
55112;SDS011;41006;50.920;3.456;2022-09-02T00:48:06;7.22;;;3.45;;
55112;SDS011;41006;50.920;3.456;2022-09-02T00:48:38;8.27;;;3.67;;
55112;SDS011;41006;50.920;3.456;2022-09-02T00:49:15;7.88;;;3.58;;
55112;SDS011;41006;50.920;3.456;2022-09-02T00:49:53;6.53;;;3.10;;
55112;SDS011;41006;50.920;3.456;2022-09-02T00:50:26;8.30;;;3.33;;
55112;SDS011;41006;50.920;3.456;2022-09-02T00:51:02;4.75;;;2.80;;
55112;SDS011;41006;50.920;3.456;2022-09-02T00:52:53;5.90;;;3.25;;
55112;SDS011;41006;50.920;3.456;2022-09-02T00:53:30;6.60;;;3.33;;
55112;SDS011;41006;50.920;3.456;2022-09-02T00:54:06;9.15;;;3.58;;
55112;SDS011;41006;50.920;3.456;2022-09-02T00:54:38;7.18;;;4.03;;
55112;SDS011;41006;50.920;3.456;2022-09-02T00:55:16;6.80;;;3.80;;
55112;SDS011;41006;50.920;3.456;2022-09-02T00:55:50;8.27;;;2.90;;
55112;SDS011;41006;50.920;3.456;2022-09-02T00:56:23;5.22;;;3.30;;
55112;SDS011;41006;50.920;3.456;2022-09-02T00:56:56;9.30;;;3.72;;
55112;SDS011;41006;50.920;3.456;2022-09-02T00:57:31;7.32;;;3.38;;
55112;SDS011;41006;50.920;3.456;2022-09-02T00:58:08;7.57;;;3.55;;
55112;SDS011;41006;50.920;3.456;2022-09-02T00:58:44;7.95;;;4.13;;
55112;SDS011;41006;50.920;3.456;2022-09-02T00:59:23;8.40;;;3.85;;
55112;SDS011;41006;50.920;3.456;2022-09-02T01:00:03;5.47;;;3.92;;
55112;SDS011;41006;50.920;3.456;2022-09-02T01:00:40;6.85;;;3.80;;
55112;SDS011;41006;50.920;3.456;2022-09-02T01:01:17;7.03;;;3.38;;
55112;SDS011;41006;50.920;3.456;2022-09-02T01:01:48;12.75;;;3.90;;
55112;SDS011;41006;50.920;3.456;2022-09-02T01:02:21;9.05;;;4.50;;
55112;SDS011;41006;50.920;3.456;2022-09-02T01:02:59;4.53;;;3.25;;
55112;SDS011;41006;50.920;3.456;2022-09-02T01:03:34;7.55;;;4.45;;
55112;SDS011;41006;50.920;3.456;2022-09-02T01:04:04;8.45;;;3.70;;
55112;SDS011;41006;50.920;3.456;2022-09-02T01:04:35;6.53;;;3.90;;
55112;SDS011;41006;50.920;3.456;2022-09-02T01:05:10;10.23;;;3.95;;
55112;SDS011;41006;50.920;3.456;2022-09-02T01:05:47;6.65;;;3.95;;
55112;SDS011;41006;50.920;3.456;2022-09-02T01:06:22;9.73;;;3.60;;
55112;SDS011;41006;50.920;3.456;2022-09-02T01:06:58;8.25;;;4.03;;
55112;SDS011;41006;50.920;3.456;2022-09-02T01:07:30;5.95;;;3.70;;
55112;SDS011;41006;50.920;3.456;2022-09-02T01:08:06;8.02;;;4.15;;
55112;SDS011;41006;50.920;3.456;2022-09-02T01:08:39;11.60;;;3.97;;
55112;SDS011;41006;50.920;3.456;2022-09-02T01:09:14;4.40;;;3.78;;
55112;SDS011;41006;50.920;3.456;2022-09-02T01:09:49;5.75;;;3.53;;
55112;SDS011;41006;50.920;3.456;2022-09-02T01:10:23;12.15;;;3.55;;
55112;SDS011;41006;50.920;3.456;2022-09-02T01:10:58;8.27;;;3.90;;
55112;SDS011;41006;50.920;3.456;2022-09-02T01:11:39;8.18;;;3.50;;
55112;SDS011;41006;50.920;3.456;2022-09-02T01:12:13;5.10;;;3.17;;
55112;SDS011;41006;50.920;3.456;2022-09-02T01:12:46;8.63;;;3.60;;
55112;SDS011;41006;50.920;3.456;2022-09-02T01:13:19;7.80;;;3.97;;
55112;SDS011;41006;50.920;3.456;2022-09-02T01:13:52;9.85;;;4.03;;
55112;SDS011;41006;50.920;3.456;2022-09-02T01:14:22;5.32;;;3.58;;
55112;SDS011;41006;50.920;3.456;2022-09-02T01:14:53;6.40;;;3.60;;
55112;SDS011;41006;50.920;3.456;2022-09-02T01:15:24;6.50;;;3.83;;
55112;SDS011;41006;50.920;3.456;2022-09-02T01:15:57;8.82;;;3.65;;
55112;SDS011;41006;50.920;3.456;2022-09-02T01:17:14;6.80;;;4.03;;
55112;SDS011;41006;50.920;3.456;2022-09-02T01:17:49;4.97;;;3.80;;
55112;SDS011;41006;50.920;3.456;2022-09-02T01:18:25;6.97;;;3.78;;
55112;SDS011;41006;50.920;3.456;2022-09-02T01:19:01;6.53;;;3.97;;
55112;SDS011;41006;50.920;3.456;2022-09-02T01:19:41;5.97;;;3.13;;
55112;SDS011;41006;50.920;3.456;2022-09-02T01:20:17;12.60;;;3.70;;
55112;SDS011;41006;50.920;3.456;2022-09-02T01:20:56;9.88;;;4.03;;
55112;SDS011;41006;50.920;3.456;2022-09-02T01:21:29;6.25;;;3.75;;
55112;SDS011;41006;50.920;3.456;2022-09-02T01:22:03;7.78;;;3.50;;
55112;SDS011;41006;50.920;3.456;2022-09-02T01:22:44;8.75;;;4.05;;
55112;SDS011;41006;50.920;3.456;2022-09-02T01:23:15;6.18;;;3.72;;
55112;SDS011;41006;50.920;3.456;2022-09-02T01:23:46;7.18;;;3.33;;
55112;SDS011;41006;50.920;3.456;2022-09-02T01:24:21;7.32;;;3.80;;
55112;SDS011;41006;50.920;3.456;2022-09-02T01:24:56;4.75;;;4.18;;
55112;SDS011;41006;50.920;3.456;2022-09-02T01:25:32;7.05;;;4.30;;
55112;SDS011;41006;50.920;3.456;2022-09-02T01:26:04;8.48;;;4.05;;
55112;SDS011;41006;50.920;3.456;2022-09-02T01:26:37;8.88;;;3.90;;
55112;SDS011;41006;50.920;3.456;2022-09-02T01:27:13;9.10;;;4.00;;
55112;SDS011;41006;50.920;3.456;2022-09-02T01:27:46;10.90;;;4.03;;
55112;SDS011;41006;50.920;3.456;2022-09-02T01:28:17;6.43;;;3.97;;
55112;SDS011;41006;50.920;3.456;2022-09-02T01:28:48;7.22;;;3.72;;
55112;SDS011;41006;50.920;3.456;2022-09-02T01:29:22;7.05;;;3.38;;
55112;SDS011;41006;50.920;3.456;2022-09-02T01:29:55;7.68;;;4.15;;
55112;SDS011;41006;50.920;3.456;2022-09-02T01:30:27;8.27;;;4.03;;
55112;SDS011;41006;50.920;3.456;2022-09-02T01:31:02;10.68;;;4.30;;
55112;SDS011;41006;50.920;3.456;2022-09-02T01:31:35;7.35;;;3.72;;
55112;SDS011;41006;50.920;3.456;2022-09-02T01:32:08;5.53;;;3.70;;
55112;SDS011;41006;50.920;3.456;2022-09-02T01:32:38;8.10;;;4.13;;
55112;SDS011;41006;50.920;3.456;2022-09-02T01:33:11;4.55;;;3.55;;
55112;SDS011;41006;50.920;3.456;2022-09-02T01:33:41;11.45;;;3.83;;
55112;SDS011;41006;50.920;3.456;2022-09-02T01:34:12;6.72;;;4.63;;
55112;SDS011;41006;50.920;3.456;2022-09-02T01:34:42;8.57;;;4.57;;
55112;SDS011;41006;50.920;3.456;2022-09-02T01:35:13;7.97;;;4.18;;
55112;SDS011;41006;50.920;3.456;2022-09-02T01:35:44;7.60;;;3.72;;
55112;SDS011;41006;50.920;3.456;2022-09-02T01:36:17;5.60;;;4.18;;
55112;SDS011;41006;50.920;3.456;2022-09-02T01:36:50;7.43;;;4.38;;
55112;SDS011;41006;50.920;3.456;2022-09-02T01:37:21;7.13;;;4.20;;
55112;SDS011;41006;50.920;3.456;2022-09-02T01:37:56;5.57;;;3.95;;
55112;SDS011;41006;50.920;3.456;2022-09-02T01:38:30;7.78;;;4.32;;
55112;SDS011;41006;50.920;3.456;2022-09-02T01:39:04;8.95;;;3.90;;
55112;SDS011;41006;50.920;3.456;2022-09-02T01:39:39;10.30;;;4.07;;
55112;SDS011;41006;50.920;3.456;2022-09-02T01:40:12;5.50;;;3.90;;
55112;SDS011;41006;50.920;3.456;2022-09-02T01:40:44;6.35;;;3.92;;
55112;SDS011;41006;50.920;3.456;2022-09-02T01:41:17;8.77;;;4.45;;
55112;SDS011;41006;50.920;3.456;2022-09-02T01:41:48;8.02;;;4.10;;
55112;SDS011;41006;50.920;3.456;2022-09-02T01:42:19;9.30;;;4.03;;
55112;SDS011;41006;50.920;3.456;2022-09-02T01:42:57;11.30;;;4.30;;
55112;SDS011;41006;50.920;3.456;2022-09-02T01:43:31;6.45;;;3.92;;
55112;SDS011;41006;50.920;3.456;2022-09-02T01:44:08;8.50;;;4.85;;
55112;SDS011;41006;50.920;3.456;2022-09-02T01:44:39;11.65;;;4.75;;
55112;SDS011;41006;50.920;3.456;2022-09-02T01:45:13;7.35;;;4.20;;
55112;SDS011;41006;50.920;3.456;2022-09-02T01:45:45;11.50;;;3.95;;
55112;SDS011;41006;50.920;3.456;2022-09-02T01:46:19;8.98;;;4.28;;
55112;SDS011;41006;50.920;3.456;2022-09-02T01:46:50;5.88;;;3.95;;
55112;SDS011;41006;50.920;3.456;2022-09-02T01:47:23;6.60;;;4.45;;
55112;SDS011;41006;50.920;3.456;2022-09-02T01:47:58;9.95;;;4.05;;
55112;SDS011;41006;50.920;3.456;2022-09-02T01:48:28;7.60;;;4.53;;
55112;SDS011;41006;50.920;3.456;2022-09-02T01:49:00;15.20;;;4.80;;
55112;SDS011;41006;50.920;3.456;2022-09-02T01:49:31;10.13;;;4.20;;
55112;SDS011;41006;50.920;3.456;2022-09-02T01:50:05;8.00;;;4.57;;
55112;SDS011;41006;50.920;3.456;2022-09-02T01:50:42;7.45;;;3.85;;
55112;SDS011;41006;50.920;3.456;2022-09-02T01:51:15;6.93;;;4.28;;
55112;SDS011;41006;50.920;3.456;2022-09-02T01:51:53;7.00;;;4.25;;
55112;SDS011;41006;50.920;3.456;2022-09-02T01:52:27;10.40;;;5.07;;
55112;SDS011;41006;50.920;3.456;2022-09-02T01:52:58;7.90;;;3.90;;
55112;SDS011;41006;50.920;3.456;2022-09-02T01:53:32;8.95;;;3.92;;
55112;SDS011;41006;50.920;3.456;2022-09-02T01:54:03;8.25;;;4.57;;
55112;SDS011;41006;50.920;3.456;2022-09-02T01:54:34;6.03;;;3.70;;
55112;SDS011;41006;50.920;3.456;2022-09-02T01:55:07;9.35;;;4.53;;
55112;SDS011;41006;50.920;3.456;2022-09-02T01:55:40;14.20;;;4.80;;
55112;SDS011;41006;50.920;3.456;2022-09-02T01:56:14;6.63;;;4.18;;
55112;SDS011;41006;50.920;3.456;2022-09-02T01:56:44;6.13;;;3.88;;
55112;SDS011;41006;50.920;3.456;2022-09-02T01:57:18;5.70;;;4.30;;
55112;SDS011;41006;50.920;3.456;2022-09-02T01:57:51;8.82;;;4.28;;
55112;SDS011;41006;50.920;3.456;2022-09-02T01:58:26;8.02;;;4.40;;
55112;SDS011;41006;50.920;3.456;2022-09-02T01:58:57;10.75;;;5.05;;
55112;SDS011;41006;50.920;3.456;2022-09-02T01:59:28;7.53;;;4.45;;
55112;SDS011;41006;50.920;3.456;2022-09-02T01:59:59;9.95;;;5.40;;
55112;SDS011;41006;50.920;3.456;2022-09-02T02:00:30;10.80;;;5.07;;
55112;SDS011;41006;50.920;3.456;2022-09-02T02:01:04;6.13;;;4.03;;
55112;SDS011;41006;50.920;3.456;2022-09-02T02:01:35;9.93;;;4.20;;
55112;SDS011;41006;50.920;3.456;2022-09-02T02:02:07;8.05;;;4.50;;
55112;SDS011;41006;50.920;3.456;2022-09-02T02:02:38;6.47;;;4.70;;
55112;SDS011;41006;50.920;3.456;2022-09-02T02:03:11;8.45;;;4.20;;
55112;SDS011;41006;50.920;3.456;2022-09-02T02:03:45;11.40;;;4.40;;
55112;SDS011;41006;50.920;3.456;2022-09-02T02:04:17;8.93;;;4.75;;
55112;SDS011;41006;50.920;3.456;2022-09-02T02:04:54;6.63;;;4.55;;
55112;SDS011;41006;50.920;3.456;2022-09-02T02:05:24;8.38;;;4.85;;
55112;SDS011;41006;50.920;3.456;2022-09-02T02:05:54;10.10;;;5.18;;
55112;SDS011;41006;50.920;3.456;2022-09-02T02:06:27;13.77;;;4.82;;
55112;SDS011;41006;50.920;3.456;2022-09-02T02:06:57;9.00;;;4.85;;
55112;SDS011;41006;50.920;3.456;2022-09-02T02:07:28;12.13;;;4.80;;
55112;SDS011;41006;50.920;3.456;2022-09-02T02:08:01;11.25;;;5.10;;
55112;SDS011;41006;50.920;3.456;2022-09-02T02:08:32;11.73;;;5.07;;
55112;SDS011;41006;50.920;3.456;2022-09-02T02:09:03;8.80;;;4.55;;
55112;SDS011;41006;50.920;3.456;2022-09-02T02:09:35;7.60;;;4.70;;
55112;SDS011;41006;50.920;3.456;2022-09-02T02:10:10;8.63;;;4.75;;
55112;SDS011;41006;50.920;3.456;2022-09-02T02:10:46;7.45;;;4.22;;
55112;SDS011;41006;50.920;3.456;2022-09-02T02:11:17;8.95;;;4.72;;
55112;SDS011;41006;50.920;3.456;2022-09-02T02:11:49;7.10;;;3.97;;
55112;SDS011;41006;50.920;3.456;2022-09-02T02:12:22;10.18;;;4.75;;
55112;SDS011;41006;50.920;3.456;2022-09-02T02:12:53;7.75;;;4.40;;
55112;SDS011;41006;50.920;3.456;2022-09-02T02:13:26;10.35;;;4.70;;
55112;SDS011;41006;50.920;3.456;2022-09-02T02:13:59;10.13;;;5.10;;
55112;SDS011;41006;50.920;3.456;2022-09-02T02:14:32;11.35;;;5.47;;
55112;SDS011;41006;50.920;3.456;2022-09-02T02:15:04;9.07;;;4.53;;
55112;SDS011;41006;50.920;3.456;2022-09-02T02:15:38;11.55;;;4.70;;
55112;SDS011;41006;50.920;3.456;2022-09-02T02:16:10;10.88;;;4.93;;
55112;SDS011;41006;50.920;3.456;2022-09-02T02:16:41;7.30;;;4.72;;
55112;SDS011;41006;50.920;3.456;2022-09-02T02:17:11;8.57;;;5.57;;
55112;SDS011;41006;50.920;3.456;2022-09-02T02:17:44;6.18;;;3.88;;
55112;SDS011;41006;50.920;3.456;2022-09-02T02:18:15;7.32;;;4.35;;
55112;SDS011;41006;50.920;3.456;2022-09-02T02:18:46;9.30;;;5.00;;
55112;SDS011;41006;50.920;3.456;2022-09-02T02:19:16;6.05;;;3.95;;
55112;SDS011;41006;50.920;3.456;2022-09-02T02:19:47;6.70;;;4.32;;
55112;SDS011;41006;50.920;3.456;2022-09-02T02:20:20;7.22;;;4.63;;
55112;SDS011;41006;50.920;3.456;2022-09-02T02:20:50;11.45;;;4.47;;
55112;SDS011;41006;50.920;3.456;2022-09-02T02:21:21;6.72;;;4.63;;
55112;SDS011;41006;50.920;3.456;2022-09-02T02:21:51;7.20;;;4.70;;
55112;SDS011;41006;50.920;3.456;2022-09-02T02:22:27;7.93;;;4.25;;
55112;SDS011;41006;50.920;3.456;2022-09-02T02:22:58;8.80;;;5.75;;
55112;SDS011;41006;50.920;3.456;2022-09-02T02:23:29;7.13;;;5.30;;
55112;SDS011;41006;50.920;3.456;2022-09-02T02:24:02;8.43;;;4.63;;
55112;SDS011;41006;50.920;3.456;2022-09-02T02:24:39;6.88;;;4.57;;
55112;SDS011;41006;50.920;3.456;2022-09-02T02:25:12;7.95;;;4.50;;
55112;SDS011;41006;50.920;3.456;2022-09-02T02:25:46;5.60;;;4.50;;
55112;SDS011;41006;50.920;3.456;2022-09-02T02:26:18;8.35;;;4.70;;
55112;SDS011;41006;50.920;3.456;2022-09-02T02:26:51;12.32;;;5.18;;
55112;SDS011;41006;50.920;3.456;2022-09-02T02:27:21;6.85;;;4.60;;
55112;SDS011;41006;50.920;3.456;2022-09-02T02:27:54;7.45;;;4.88;;
55112;SDS011;41006;50.920;3.456;2022-09-02T02:28:24;10.90;;;4.70;;
55112;SDS011;41006;50.920;3.456;2022-09-02T02:28:55;10.38;;;5.22;;
55112;SDS011;41006;50.920;3.456;2022-09-02T02:29:25;7.20;;;4.82;;
55112;SDS011;41006;50.920;3.456;2022-09-02T02:30:00;9.05;;;5.35;;
55112;SDS011;41006;50.920;3.456;2022-09-02T02:30:31;7.70;;;4.68;;
55112;SDS011;41006;50.920;3.456;2022-09-02T02:31:04;12.57;;;5.38;;
55112;SDS011;41006;50.920;3.456;2022-09-02T02:31:38;9.05;;;4.45;;
55112;SDS011;41006;50.920;3.456;2022-09-02T02:32:11;9.35;;;4.10;;
55112;SDS011;41006;50.920;3.456;2022-09-02T02:32:42;5.95;;;5.00;;
55112;SDS011;41006;50.920;3.456;2022-09-02T02:33:21;9.18;;;5.03;;
55112;SDS011;41006;50.920;3.456;2022-09-02T02:33:54;7.43;;;4.88;;
55112;SDS011;41006;50.920;3.456;2022-09-02T02:34:27;6.60;;;4.30;;
55112;SDS011;41006;50.920;3.456;2022-09-02T02:35:02;10.38;;;4.88;;
55112;SDS011;41006;50.920;3.456;2022-09-02T02:35:33;6.82;;;4.75;;
55112;SDS011;41006;50.920;3.456;2022-09-02T02:36:06;7.65;;;4.82;;
55112;SDS011;41006;50.920;3.456;2022-09-02T02:36:38;9.68;;;5.00;;
55112;SDS011;41006;50.920;3.456;2022-09-02T02:37:12;9.02;;;4.88;;
55112;SDS011;41006;50.920;3.456;2022-09-02T02:37:47;10.05;;;4.85;;
55112;SDS011;41006;50.920;3.456;2022-09-02T02:38:19;11.30;;;4.97;;
55112;SDS011;41006;50.920;3.456;2022-09-02T02:38:54;9.98;;;4.70;;
55112;SDS011;41006;50.920;3.456;2022-09-02T02:39:27;8.68;;;4.60;;
55112;SDS011;41006;50.920;3.456;2022-09-02T02:39:59;11.43;;;4.50;;
55112;SDS011;41006;50.920;3.456;2022-09-02T02:40:33;10.90;;;4.68;;
55112;SDS011;41006;50.920;3.456;2022-09-02T02:41:10;7.30;;;4.80;;
55112;SDS011;41006;50.920;3.456;2022-09-02T02:41:43;7.22;;;5.00;;
55112;SDS011;41006;50.920;3.456;2022-09-02T02:42:18;7.40;;;4.15;;
55112;SDS011;41006;50.920;3.456;2022-09-02T02:42:49;6.70;;;5.03;;
55112;SDS011;41006;50.920;3.456;2022-09-02T02:43:24;16.13;;;5.80;;
55112;SDS011;41006;50.920;3.456;2022-09-02T02:43:55;9.02;;;5.10;;
55112;SDS011;41006;50.920;3.456;2022-09-02T02:44:30;8.52;;;4.68;;
55112;SDS011;41006;50.920;3.456;2022-09-02T02:45:03;9.10;;;5.03;;
55112;SDS011;41006;50.920;3.456;2022-09-02T02:45:38;8.25;;;4.85;;
55112;SDS011;41006;50.920;3.456;2022-09-02T02:46:13;7.65;;;4.57;;
55112;SDS011;41006;50.920;3.456;2022-09-02T02:46:47;6.57;;;4.47;;
55112;SDS011;41006;50.920;3.456;2022-09-02T02:47:20;8.15;;;5.43;;
55112;SDS011;41006;50.920;3.456;2022-09-02T02:47:58;8.68;;;4.50;;
55112;SDS011;41006;50.920;3.456;2022-09-02T02:48:34;6.15;;;4.45;;
55112;SDS011;41006;50.920;3.456;2022-09-02T02:49:05;7.28;;;5.20;;
55112;SDS011;41006;50.920;3.456;2022-09-02T02:49:37;13.25;;;5.80;;
55112;SDS011;41006;50.920;3.456;2022-09-02T02:50:09;14.80;;;6.68;;
55112;SDS011;41006;50.920;3.456;2022-09-02T02:50:44;9.32;;;5.43;;
55112;SDS011;41006;50.920;3.456;2022-09-02T02:51:14;8.45;;;5.00;;
55112;SDS011;41006;50.920;3.456;2022-09-02T02:51:47;7.15;;;4.75;;
55112;SDS011;41006;50.920;3.456;2022-09-02T02:52:20;8.43;;;5.10;;
55112;SDS011;41006;50.920;3.456;2022-09-02T02:52:51;10.45;;;5.13;;
55112;SDS011;41006;50.920;3.456;2022-09-02T02:53:23;10.23;;;5.53;;
55112;SDS011;41006;50.920;3.456;2022-09-02T02:53:54;7.50;;;5.18;;
55112;SDS011;41006;50.920;3.456;2022-09-02T02:54:24;7.57;;;5.03;;
55112;SDS011;41006;50.920;3.456;2022-09-02T02:54:59;11.10;;;4.72;;
55112;SDS011;41006;50.920;3.456;2022-09-02T02:55:30;9.63;;;4.60;;
55112;SDS011;41006;50.920;3.456;2022-09-02T02:56:00;7.05;;;4.47;;
55112;SDS011;41006;50.920;3.456;2022-09-02T02:56:31;11.55;;;4.68;;
55112;SDS011;41006;50.920;3.456;2022-09-02T02:57:07;11.52;;;5.00;;
55112;SDS011;41006;50.920;3.456;2022-09-02T02:57:38;9.35;;;4.97;;
55112;SDS011;41006;50.920;3.456;2022-09-02T02:58:10;7.10;;;4.65;;
55112;SDS011;41006;50.920;3.456;2022-09-02T02:58:41;7.40;;;4.50;;
55112;SDS011;41006;50.920;3.456;2022-09-02T02:59:13;7.88;;;4.60;;
55112;SDS011;41006;50.920;3.456;2022-09-02T02:59:44;9.25;;;5.05;;
55112;SDS011;41006;50.920;3.456;2022-09-02T03:00:16;14.10;;;4.57;;
55112;SDS011;41006;50.920;3.456;2022-09-02T03:00:58;7.10;;;4.50;;
55112;SDS011;41006;50.920;3.456;2022-09-02T03:01:30;6.80;;;5.00;;
55112;SDS011;41006;50.920;3.456;2022-09-02T03:02:05;8.90;;;4.97;;
55112;SDS011;41006;50.920;3.456;2022-09-02T03:02:38;7.30;;;4.50;;
55112;SDS011;41006;50.920;3.456;2022-09-02T03:03:11;11.90;;;5.43;;
55112;SDS011;41006;50.920;3.456;2022-09-02T03:03:48;8.35;;;5.68;;
55112;SDS011;41006;50.920;3.456;2022-09-02T03:04:20;8.93;;;4.90;;
55112;SDS011;41006;50.920;3.456;2022-09-02T03:04:51;11.73;;;5.10;;
55112;SDS011;41006;50.920;3.456;2022-09-02T03:05:25;11.10;;;5.25;;
55112;SDS011;41006;50.920;3.456;2022-09-02T03:06:01;10.68;;;4.95;;
55112;SDS011;41006;50.920;3.456;2022-09-02T03:06:36;12.00;;;4.90;;
55112;SDS011;41006;50.920;3.456;2022-09-02T03:07:07;6.68;;;4.38;;
55112;SDS011;41006;50.920;3.456;2022-09-02T03:07:37;8.93;;;4.78;;
55112;SDS011;41006;50.920;3.456;2022-09-02T03:08:08;8.00;;;4.50;;
55112;SDS011;41006;50.920;3.456;2022-09-02T03:08:39;9.55;;;4.90;;
55112;SDS011;41006;50.920;3.456;2022-09-02T03:09:13;7.38;;;4.97;;
55112;SDS011;41006;50.920;3.456;2022-09-02T03:09:43;9.25;;;5.10;;
55112;SDS011;41006;50.920;3.456;2022-09-02T03:10:17;9.63;;;4.72;;
55112;SDS011;41006;50.920;3.456;2022-09-02T03:10:51;8.20;;;4.90;;
55112;SDS011;41006;50.920;3.456;2022-09-02T03:11:24;11.18;;;5.03;;
55112;SDS011;41006;50.920;3.456;2022-09-02T03:11:57;8.48;;;5.10;;
55112;SDS011;41006;50.920;3.456;2022-09-02T03:12:27;12.85;;;5.72;;
55112;SDS011;41006;50.920;3.456;2022-09-02T03:12:58;12.40;;;4.85;;
55112;SDS011;41006;50.920;3.456;2022-09-02T03:13:32;6.60;;;5.07;;
55112;SDS011;41006;50.920;3.456;2022-09-02T03:14:06;12.20;;;6.10;;
55112;SDS011;41006;50.920;3.456;2022-09-02T03:14:39;9.25;;;4.55;;
55112;SDS011;41006;50.920;3.456;2022-09-02T03:15:09;7.75;;;4.70;;
55112;SDS011;41006;50.920;3.456;2022-09-02T03:15:41;8.77;;;4.82;;
55112;SDS011;41006;50.920;3.456;2022-09-02T03:16:11;8.48;;;4.80;;
55112;SDS011;41006;50.920;3.456;2022-09-02T03:16:47;10.73;;;4.72;;
55112;SDS011;41006;50.920;3.456;2022-09-02T03:17:17;7.68;;;4.53;;
55112;SDS011;41006;50.920;3.456;2022-09-02T03:17:51;6.63;;;4.72;;
55112;SDS011;41006;50.920;3.456;2022-09-02T03:18:23;7.75;;;5.43;;
55112;SDS011;41006;50.920;3.456;2022-09-02T03:18:53;7.70;;;4.80;;
55112;SDS011;41006;50.920;3.456;2022-09-02T03:19:24;6.82;;;5.15;;
55112;SDS011;41006;50.920;3.456;2022-09-02T03:19:54;8.80;;;5.35;;
55112;SDS011;41006;50.920;3.456;2022-09-02T03:20:28;9.00;;;5.68;;
55112;SDS011;41006;50.920;3.456;2022-09-02T03:21:00;7.93;;;5.57;;
55112;SDS011;41006;50.920;3.456;2022-09-02T03:21:33;8.82;;;6.03;;